Adak Island, Alaska
Current Conditions -  °F | °C
As of 1:56 PM on Thursday 27 Nov 2014 (Local Time) from PADK Reporting Station
Broken Clouds Broken Clouds  
Wind Chill: 29°   Ceiling: 3700
Heat Index: 37°   Visibility: 10mi
Dew Point: 30°   Wind: 15mph
Humidity: 75%   Direction: 230°SW
Pressure: 29.77"   Gusts: NA
Location:  51.88°N, 176.65°W
Report Text: PADK 272256Z AUTO 23013KT 10SM FEW019 BKN037 BKN043 03/M01 A2977 RMK AO1
Loading
Personal Weather Stations






























Interactive Weather Map New forecast layout! Learn more

10-Day Weather Forecast

Advertisements
Track Severe Weather on mobile